sensor_id;sensor_type;location;lat;lon;timestamp;temperature;humidity
15997;DHT22;8103;51.340;12.326;2023-04-03T00:01:10;3.10;98.40
15997;DHT22;8103;51.340;12.326;2023-04-03T00:03:37;3.10;98.80
15997;DHT22;8103;51.340;12.326;2023-04-03T00:06:04;3.10;98.10
15997;DHT22;8103;51.340;12.326;2023-04-03T00:08:33;3.10;98.00
15997;DHT22;8103;51.340;12.326;2023-04-03T00:11:01;3.10;98.10
15997;DHT22;8103;51.340;12.326;2023-04-03T00:13:29;3.10;98.20
15997;DHT22;8103;51.340;12.326;2023-04-03T00:15:56;3.10;98.20
15997;DHT22;8103;51.340;12.326;2023-04-03T00:18:23;3.10;98.40
15997;DHT22;8103;51.340;12.326;2023-04-03T00:20:50;3.00;98.10
15997;DHT22;8103;51.340;12.326;2023-04-03T00:23:17;3.00;98.40
15997;DHT22;8103;51.340;12.326;2023-04-03T00:25:44;3.00;98.40
15997;DHT22;8103;51.340;12.326;2023-04-03T00:28:11;3.00;98.40
15997;DHT22;8103;51.340;12.326;2023-04-03T00:30:38;3.00;98.50
15997;DHT22;8103;51.340;12.326;2023-04-03T00:33:05;3.00;98.50
15997;DHT22;8103;51.340;12.326;2023-04-03T00:35:34;2.90;98.50
15997;DHT22;8103;51.340;12.326;2023-04-03T00:38:01;2.90;98.30
15997;DHT22;8103;51.340;12.326;2023-04-03T00:40:33;2.90;98.30
15997;DHT22;8103;51.340;12.326;2023-04-03T00:43:22;2.90;98.20
15997;DHT22;8103;51.340;12.326;2023-04-03T00:45:54;2.90;98.20
15997;DHT22;8103;51.340;12.326;2023-04-03T00:48:28;2.80;98.20
15997;DHT22;8103;51.340;12.326;2023-04-03T00:50:58;2.80;98.20
15997;DHT22;8103;51.340;12.326;2023-04-03T00:53:30;2.70;98.30
15997;DHT22;8103;51.340;12.326;2023-04-03T00:56:00;2.60;99.20
15997;DHT22;8103;51.340;12.326;2023-04-03T00:58:38;2.50;98.60
15997;DHT22;8103;51.340;12.326;2023-04-03T01:01:13;2.60;98.70
15997;DHT22;8103;51.340;12.326;2023-04-03T01:03:44;2.50;98.80
15997;DHT22;8103;51.340;12.326;2023-04-03T01:06:13;2.50;98.90
15997;DHT22;8103;51.340;12.326;2023-04-03T01:08:42;2.50;99.10
15997;DHT22;8103;51.340;12.326;2023-04-03T01:11:11;2.40;99.30
15997;DHT22;8103;51.340;12.326;2023-04-03T01:13:38;2.40;99.40
15997;DHT22;8103;51.340;12.326;2023-04-03T01:16:05;2.30;99.50
15997;DHT22;8103;51.340;12.326;2023-04-03T01:18:34;2.30;99.70
15997;DHT22;8103;51.340;12.326;2023-04-03T01:21:30;2.30;99.80
15997;DHT22;8103;51.340;12.326;2023-04-03T01:24:22;2.20;99.90
15997;DHT22;8103;51.340;12.326;2023-04-03T01:27:04;2.10;99.90
15997;DHT22;8103;51.340;12.326;2023-04-03T01:29:33;2.10;99.90
15997;DHT22;8103;51.340;12.326;2023-04-03T01:32:01;2.00;99.90
15997;DHT22;8103;51.340;12.326;2023-04-03T01:34:29;1.90;99.90
15997;DHT22;8103;51.340;12.326;2023-04-03T01:39:24;1.90;99.90
15997;DHT22;8103;51.340;12.326;2023-04-03T01:41:51;1.80;99.90
15997;DHT22;8103;51.340;12.326;2023-04-03T01:44:18;1.80;99.90
15997;DHT22;8103;51.340;12.326;2023-04-03T01:46:45;1.80;99.90
15997;DHT22;8103;51.340;12.326;2023-04-03T01:49:12;1.80;99.90
15997;DHT22;8103;51.340;12.326;2023-04-03T01:51:39;1.70;99.90
15997;DHT22;8103;51.340;12.326;2023-04-03T01:54:06;1.70;99.90
15997;DHT22;8103;51.340;12.326;2023-04-03T01:56:33;1.70;99.90
15997;DHT22;8103;51.340;12.326;2023-04-03T01:59:00;1.60;99.90
15997;DHT22;8103;51.340;12.326;2023-04-03T02:01:27;1.60;99.90
15997;DHT22;8103;51.340;12.326;2023-04-03T02:03:53;1.60;99.90
15997;DHT22;8103;51.340;12.326;2023-04-03T02:06:21;1.60;99.90
15997;DHT22;8103;51.340;12.326;2023-04-03T02:08:48;1.60;99.90
15997;DHT22;8103;51.340;12.326;2023-04-03T02:11:15;1.50;99.90
15997;DHT22;8103;51.340;12.326;2023-04-03T02:13:44;1.50;99.90
15997;DHT22;8103;51.340;12.326;2023-04-03T02:16:11;1.50;99.90
15997;DHT22;8103;51.340;12.326;2023-04-03T02:18:39;1.50;99.90
15997;DHT22;8103;51.340;12.326;2023-04-03T02:21:06;1.50;99.90
15997;DHT22;8103;51.340;12.326;2023-04-03T02:23:34;1.60;99.90
15997;DHT22;8103;51.340;12.326;2023-04-03T02:26:10;1.60;99.90
15997;DHT22;8103;51.340;12.326;2023-04-03T02:28:42;1.60;99.90
15997;DHT22;8103;51.340;12.326;2023-04-03T02:31:09;1.60;99.90
15997;DHT22;8103;51.340;12.326;2023-04-03T02:33:37;1.60;99.90
15997;DHT22;8103;51.340;12.326;2023-04-03T02:36:06;1.50;99.90
15997;DHT22;8103;51.340;12.326;2023-04-03T02:38:34;1.50;99.90
15997;DHT22;8103;51.340;12.326;2023-04-03T02:41:08;1.50;99.90
15997;DHT22;8103;51.340;12.326;2023-04-03T02:43:37;1.40;99.90
15997;DHT22;8103;51.340;12.326;2023-04-03T02:46:06;1.40;99.90
15997;DHT22;8103;51.340;12.326;2023-04-03T02:48:33;1.40;99.90
15997;DHT22;8103;51.340;12.326;2023-04-03T02:51:00;1.30;99.90
15997;DHT22;8103;51.340;12.326;2023-04-03T02:53:27;1.30;99.90
15997;DHT22;8103;51.340;12.326;2023-04-03T02:55:54;1.30;99.90
15997;DHT22;8103;51.340;12.326;2023-04-03T02:58:21;1.30;99.90
15997;DHT22;8103;51.340;12.326;2023-04-03T03:00:48;1.20;99.90
15997;DHT22;8103;51.340;12.326;2023-04-03T03:03:15;1.20;99.90
15997;DHT22;8103;51.340;12.326;2023-04-03T03:05:41;1.20;99.90
15997;DHT22;8103;51.340;12.326;2023-04-03T03:08:08;1.10;99.90
15997;DHT22;8103;51.340;12.326;2023-04-03T03:10:35;1.10;99.90
15997;DHT22;8103;51.340;12.326;2023-04-03T03:13:02;1.00;99.90
15997;DHT22;8103;51.340;12.326;2023-04-03T03:15:29;0.90;99.90
15997;DHT22;8103;51.340;12.326;2023-04-03T03:17:56;0.90;99.90
15997;DHT22;8103;51.340;12.326;2023-04-03T03:20:23;0.80;99.90
15997;DHT22;8103;51.340;12.326;2023-04-03T03:22:50;0.80;99.90
15997;DHT22;8103;51.340;12.326;2023-04-03T03:25:16;0.80;99.90
15997;DHT22;8103;51.340;12.326;2023-04-03T03:27:44;0.80;99.90
15997;DHT22;8103;51.340;12.326;2023-04-03T03:30:12;0.70;99.90
15997;DHT22;8103;51.340;12.326;2023-04-03T03:32:39;0.70;99.90
15997;DHT22;8103;51.340;12.326;2023-04-03T03:35:06;0.60;99.90
15997;DHT22;8103;51.340;12.326;2023-04-03T03:37:33;0.60;99.90
15997;DHT22;8103;51.340;12.326;2023-04-03T03:40:00;0.60;99.90
15997;DHT22;8103;51.340;12.326;2023-04-03T03:42:27;0.60;99.90
15997;DHT22;8103;51.340;12.326;2023-04-03T03:44:54;0.60;99.90
15997;DHT22;8103;51.340;12.326;2023-04-03T03:47:21;0.60;99.90
15997;DHT22;8103;51.340;12.326;2023-04-03T03:49:48;0.50;99.90
15997;DHT22;8103;51.340;12.326;2023-04-03T03:52:15;0.50;99.90
15997;DHT22;8103;51.340;12.326;2023-04-03T03:54:42;0.50;99.90
15997;DHT22;8103;51.340;12.326;2023-04-03T03:57:09;0.40;99.90
15997;DHT22;8103;51.340;12.326;2023-04-03T03:59:36;0.40;99.90
15997;DHT22;8103;51.340;12.326;2023-04-03T04:02:03;0.40;99.90
15997;DHT22;8103;51.340;12.326;2023-04-03T04:04:30;0.40;99.90
15997;DHT22;8103;51.340;12.326;2023-04-03T04:06:56;0.30;99.90
15997;DHT22;8103;51.340;12.326;2023-04-03T04:09:23;0.30;99.90
15997;DHT22;8103;51.340;12.326;2023-04-03T04:11:50;0.30;99.90
15997;DHT22;8103;51.340;12.326;2023-04-03T04:14:17;0.20;99.90
15997;DHT22;8103;51.340;12.326;2023-04-03T04:16:44;0.20;99.90
15997;DHT22;8103;51.340;12.326;2023-04-03T04:19:10;0.20;99.90
15997;DHT22;8103;51.340;12.326;2023-04-03T04:21:37;0.20;99.90
15997;DHT22;8103;51.340;12.326;2023-04-03T04:24:08;0.20;99.90
15997;DHT22;8103;51.340;12.326;2023-04-03T04:26:35;0.10;99.90
15997;DHT22;8103;51.340;12.326;2023-04-03T04:29:02;0.10;99.90
15997;DHT22;8103;51.340;12.326;2023-04-03T04:31:29;0.10;99.90
15997;DHT22;8103;51.340;12.326;2023-04-03T04:33:56;0.10;99.90
15997;DHT22;8103;51.340;12.326;2023-04-03T04:36:23;0.00;99.90
15997;DHT22;8103;51.340;12.326;2023-04-03T04:38:50;0.00;99.90
15997;DHT22;8103;51.340;12.326;2023-04-03T04:45:19;0.00;99.90
15997;DHT22;8103;51.340;12.326;2023-04-03T04:47:46;0.00;99.90
15997;DHT22;8103;51.340;12.326;2023-04-03T04:50:12;0.00;99.90
15997;DHT22;8103;51.340;12.326;2023-04-03T04:52:39;0.00;99.90
15997;DHT22;8103;51.340;12.326;2023-04-03T04:55:06;0.00;99.90
15997;DHT22;8103;51.340;12.326;2023-04-03T04:57:33;0.00;99.90
15997;DHT22;8103;51.340;12.326;2023-04-03T05:00:01;0.00;99.90
15997;DHT22;8103;51.340;12.326;2023-04-03T05:02:29;0.30;99.90
15997;DHT22;8103;51.340;12.326;2023-04-03T05:09:02;0.90;99.90
15997;DHT22;8103;51.340;12.326;2023-04-03T05:11:29;1.10;99.90
15997;DHT22;8103;51.340;12.326;2023-04-03T05:13:56;1.20;99.90
15997;DHT22;8103;51.340;12.326;2023-04-03T05:16:23;1.00;99.90
15997;DHT22;8103;51.340;12.326;2023-04-03T05:18:50;0.90;99.90
15997;DHT22;8103;51.340;12.326;2023-04-03T05:21:17;0.70;99.90
15997;DHT22;8103;51.340;12.326;2023-04-03T05:23:44;0.60;99.90
15997;DHT22;8103;51.340;12.326;2023-04-03T05:26:11;0.50;99.90
15997;DHT22;8103;51.340;12.326;2023-04-03T05:28:38;0.40;99.90
15997;DHT22;8103;51.340;12.326;2023-04-03T05:31:05;0.40;99.90
15997;DHT22;8103;51.340;12.326;2023-04-03T05:33:32;0.30;99.90
15997;DHT22;8103;51.340;12.326;2023-04-03T05:36:03;0.40;99.90
15997;DHT22;8103;51.340;12.326;2023-04-03T05:38:31;0.30;99.90
15997;DHT22;8103;51.340;12.326;2023-04-03T05:40:58;0.40;99.90
15997;DHT22;8103;51.340;12.326;2023-04-03T05:43:25;0.40;99.90
15997;DHT22;8103;51.340;12.326;2023-04-03T05:45:52;0.40;99.90
15997;DHT22;8103;51.340;12.326;2023-04-03T05:48:19;0.40;99.90
15997;DHT22;8103;51.340;12.326;2023-04-03T05:50:46;0.40;99.90
15997;DHT22;8103;51.340;12.326;2023-04-03T05:53:20;0.40;99.90
15997;DHT22;8103;51.340;12.326;2023-04-03T05:55:50;0.40;99.90
15997;DHT22;8103;51.340;12.326;2023-04-03T05:58:20;0.50;99.90
15997;DHT22;8103;51.340;12.326;2023-04-03T06:00:47;0.60;99.90
15997;DHT22;8103;51.340;12.326;2023-04-03T06:03:14;0.60;99.90
15997;DHT22;8103;51.340;12.326;2023-04-03T06:05:41;0.70;99.90
15997;DHT22;8103;51.340;12.326;2023-04-03T06:08:09;0.80;99.90
15997;DHT22;8103;51.340;12.326;2023-04-03T06:10:36;0.80;99.90
15997;DHT22;8103;51.340;12.326;2023-04-03T06:13:03;0.90;99.90
15997;DHT22;8103;51.340;12.326;2023-04-03T06:15:30;0.90;99.90
15997;DHT22;8103;51.340;12.326;2023-04-03T06:17:58;1.00;99.90
15997;DHT22;8103;51.340;12.326;2023-04-03T06:20:25;1.10;99.90
15997;DHT22;8103;51.340;12.326;2023-04-03T06:22:52;1.10;99.90
15997;DHT22;8103;51.340;12.326;2023-04-03T06:25:19;1.20;99.90
15997;DHT22;8103;51.340;12.326;2023-04-03T06:27:46;1.20;99.90
15997;DHT22;8103;51.340;12.326;2023-04-03T06:30:13;1.40;99.90
15997;DHT22;8103;51.340;12.326;2023-04-03T06:32:39;1.60;99.90
15997;DHT22;8103;51.340;12.326;2023-04-03T06:35:07;1.80;99.90
15997;DHT22;8103;51.340;12.326;2023-04-03T06:37:35;1.90;99.90
15997;DHT22;8103;51.340;12.326;2023-04-03T06:44:08;2.00;99.90
15997;DHT22;8103;51.340;12.326;2023-04-03T06:46:38;2.00;99.90
15997;DHT22;8103;51.340;12.326;2023-04-03T06:49:05;2.00;99.90
15997;DHT22;8103;51.340;12.326;2023-04-03T06:51:35;2.00;99.90
15997;DHT22;8103;51.340;12.326;2023-04-03T06:54:04;2.10;99.90
15997;DHT22;8103;51.340;12.326;2023-04-03T06:56:32;2.10;99.90
15997;DHT22;8103;51.340;12.326;2023-04-03T06:59:00;2.20;99.90
15997;DHT22;8103;51.340;12.326;2023-04-03T07:01:28;2.30;99.90
15997;DHT22;8103;51.340;12.326;2023-04-03T07:03:57;2.30;99.90
15997;DHT22;8103;51.340;12.326;2023-04-03T07:06:25;2.40;99.90
15997;DHT22;8103;51.340;12.326;2023-04-03T07:08:55;2.40;99.90
15997;DHT22;8103;51.340;12.326;2023-04-03T07:15:29;2.60;99.90
15997;DHT22;8103;51.340;12.326;2023-04-03T07:17:58;2.80;99.90
15997;DHT22;8103;51.340;12.326;2023-04-03T07:20:25;2.80;99.90
15997;DHT22;8103;51.340;12.326;2023-04-03T07:22:51;2.90;99.90
15997;DHT22;8103;51.340;12.326;2023-04-03T07:25:21;2.90;99.90
15997;DHT22;8103;51.340;12.326;2023-04-03T07:27:48;3.00;99.90
15997;DHT22;8103;51.340;12.326;2023-04-03T07:30:15;3.10;99.90
15997;DHT22;8103;51.340;12.326;2023-04-03T07:32:42;3.20;99.90
15997;DHT22;8103;51.340;12.326;2023-04-03T07:39:17;3.30;99.90
15997;DHT22;8103;51.340;12.326;2023-04-03T07:41:44;3.50;99.90
15997;DHT22;8103;51.340;12.326;2023-04-03T07:44:12;3.60;99.90
15997;DHT22;8103;51.340;12.326;2023-04-03T07:46:38;3.80;99.60
15997;DHT22;8103;51.340;12.326;2023-04-03T07:49:07;3.90;98.80
15997;DHT22;8103;51.340;12.326;2023-04-03T07:51:34;3.90;98.40
15997;DHT22;8103;51.340;12.326;2023-04-03T07:54:01;4.00;97.80
15997;DHT22;8103;51.340;12.326;2023-04-03T07:56:28;4.00;97.50
15997;DHT22;8103;51.340;12.326;2023-04-03T07:58:55;4.10;97.50
15997;DHT22;8103;51.340;12.326;2023-04-03T08:01:22;4.30;97.90
15997;DHT22;8103;51.340;12.326;2023-04-03T08:03:50;4.40;97.30
15997;DHT22;8103;51.340;12.326;2023-04-03T08:06:18;4.70;96.80
15997;DHT22;8103;51.340;12.326;2023-04-03T08:08:55;5.00;96.30
15997;DHT22;8103;51.340;12.326;2023-04-03T08:11:22;5.40;94.60
15997;DHT22;8103;51.340;12.326;2023-04-03T08:13:51;5.50;93.60
15997;DHT22;8103;51.340;12.326;2023-04-03T08:16:21;5.90;93.40
15997;DHT22;8103;51.340;12.326;2023-04-03T08:18:52;6.30;91.80
15997;DHT22;8103;51.340;12.326;2023-04-03T08:21:20;6.40;90.30
15997;DHT22;8103;51.340;12.326;2023-04-03T08:23:49;6.30;88.10
15997;DHT22;8103;51.340;12.326;2023-04-03T08:26:20;6.10;89.10
15997;DHT22;8103;51.340;12.326;2023-04-03T08:28:48;6.00;90.50
15997;DHT22;8103;51.340;12.326;2023-04-03T08:31:18;5.80;90.90
15997;DHT22;8103;51.340;12.326;2023-04-03T08:33:46;5.80;91.60
15997;DHT22;8103;51.340;12.326;2023-04-03T08:36:22;5.80;91.70
15997;DHT22;8103;51.340;12.326;2023-04-03T08:38:53;5.70;91.00
15997;DHT22;8103;51.340;12.326;2023-04-03T08:41:33;5.80;90.60
15997;DHT22;8103;51.340;12.326;2023-04-03T08:44:18;5.80;89.40
15997;DHT22;8103;51.340;12.326;2023-04-03T08:47:14;5.70;89.00
15997;DHT22;8103;51.340;12.326;2023-04-03T08:49:59;5.60;90.00
15997;DHT22;8103;51.340;12.326;2023-04-03T08:52:48;5.50;89.60
15997;DHT22;8103;51.340;12.326;2023-04-03T08:55:40;5.40;88.10
15997;DHT22;8103;51.340;12.326;2023-04-03T08:58:18;5.20;88.30
15997;DHT22;8103;51.340;12.326;2023-04-03T09:01:23;5.30;90.00
15997;DHT22;8103;51.340;12.326;2023-04-03T09:03:54;5.50;91.40
15997;DHT22;8103;51.340;12.326;2023-04-03T09:06:25;7.50;89.20
15997;DHT22;8103;51.340;12.326;2023-04-03T09:22:17;14.40;53.80
15997;DHT22;8103;51.340;12.326;2023-04-03T09:25:04;15.00;49.50
15997;DHT22;8103;51.340;12.326;2023-04-03T09:27:36;15.40;47.60
15997;DHT22;8103;51.340;12.326;2023-04-03T09:30:04;15.70;46.20
15997;DHT22;8103;51.340;12.326;2023-04-03T09:36:42;15.70;44.50
15997;DHT22;8103;51.340;12.326;2023-04-03T09:45:45;12.60;49.70
15997;DHT22;8103;51.340;12.326;2023-04-03T09:52:23;13.00;48.60
15997;DHT22;8103;51.340;12.326;2023-04-03T09:54:52;13.80;50.40
15997;DHT22;8103;51.340;12.326;2023-04-03T09:57:19;15.00;47.60
15997;DHT22;8103;51.340;12.326;2023-04-03T09:59:56;16.50;44.60
15997;DHT22;8103;51.340;12.326;2023-04-03T10:02:35;17.00;41.80
15997;DHT22;8103;51.340;12.326;2023-04-03T10:05:39;16.30;40.20
15997;DHT22;8103;51.340;12.326;2023-04-03T10:10:48;13.40;42.90
15997;DHT22;8103;51.340;12.326;2023-04-03T10:13:32;13.50;45.40
15997;DHT22;8103;51.340;12.326;2023-04-03T10:16:12;15.50;44.60
15997;DHT22;8103;51.340;12.326;2023-04-03T10:18:53;18.30;37.80
15997;DHT22;8103;51.340;12.326;2023-04-03T10:21:46;18.60;38.70
15997;DHT22;8103;51.340;12.326;2023-04-03T10:24:22;18.40;36.90
15997;DHT22;8103;51.340;12.326;2023-04-03T10:27:11;18.90;37.00
15997;DHT22;8103;51.340;12.326;2023-04-03T10:30:09;20.40;35.20
15997;DHT22;8103;51.340;12.326;2023-04-03T10:32:57;22.70;31.70
15997;DHT22;8103;51.340;12.326;2023-04-03T10:35:42;24.90;26.60
15997;DHT22;8103;51.340;12.326;2023-04-03T10:38:30;25.10;26.50
15997;DHT22;8103;51.340;12.326;2023-04-03T10:41:20;26.60;25.10
15997;DHT22;8103;51.340;12.326;2023-04-03T10:44:16;27.50;26.20
15997;DHT22;8103;51.340;12.326;2023-04-03T10:53:30;26.80;23.60
15997;DHT22;8103;51.340;12.326;2023-04-03T10:56:13;24.50;25.50
15997;DHT22;8103;51.340;12.326;2023-04-03T10:59:33;21.50;27.70
15997;DHT22;8103;51.340;12.326;2023-04-03T11:02:22;18.30;31.70
15997;DHT22;8103;51.340;12.326;2023-04-03T11:07:55;14.40;36.20
15997;DHT22;8103;51.340;12.326;2023-04-03T11:10:40;15.30;41.20
15997;DHT22;8103;51.340;12.326;2023-04-03T11:13:31;17.90;35.10
15997;DHT22;8103;51.340;12.326;2023-04-03T11:16:04;18.40;32.10
15997;DHT22;8103;51.340;12.326;2023-04-03T11:18:46;17.50;33.00
15997;DHT22;8103;51.340;12.326;2023-04-03T11:21:29;17.80;34.50
15997;DHT22;8103;51.340;12.326;2023-04-03T11:24:05;20.50;32.80
15997;DHT22;8103;51.340;12.326;2023-04-03T11:26:40;23.90;28.60
15997;DHT22;8103;51.340;12.326;2023-04-03T11:29:14;25.10;25.30
15997;DHT22;8103;51.340;12.326;2023-04-03T11:35:05;21.10;27.40
15997;DHT22;8103;51.340;12.326;2023-04-03T11:41:41;23.50;27.60
15997;DHT22;8103;51.340;12.326;2023-04-03T11:44:37;23.00;25.80
15997;DHT22;8103;51.340;12.326;2023-04-03T11:47:06;21.90;27.40
15997;DHT22;8103;51.340;12.326;2023-04-03T11:49:59;20.90;28.50
15997;DHT22;8103;51.340;12.326;2023-04-03T12:02:36;15.20;37.40
15997;DHT22;8103;51.340;12.326;2023-04-03T12:05:28;18.10;34.10
15997;DHT22;8103;51.340;12.326;2023-04-03T12:08:15;17.50;32.60
15997;DHT22;8103;51.340;12.326;2023-04-03T12:16:42;14.50;37.30
15997;DHT22;8103;51.340;12.326;2023-04-03T12:29:33;19.30;30.20
15997;DHT22;8103;51.340;12.326;2023-04-03T12:35:27;16.20;34.30
15997;DHT22;8103;51.340;12.326;2023-04-03T12:44:34;14.20;39.10
15997;DHT22;8103;51.340;12.326;2023-04-03T12:51:09;14.60;38.40
15997;DHT22;8103;51.340;12.326;2023-04-03T12:53:42;13.80;40.00
15997;DHT22;8103;51.340;12.326;2023-04-03T12:56:25;13.10;42.00
15997;DHT22;8103;51.340;12.326;2023-04-03T12:59:22;12.40;42.00
15997;DHT22;8103;51.340;12.326;2023-04-03T13:01:59;12.00;43.90
15997;DHT22;8103;51.340;12.326;2023-04-03T13:04:30;11.80;44.40
15997;DHT22;8103;51.340;12.326;2023-04-03T13:06:58;12.00;46.30
15997;DHT22;8103;51.340;12.326;2023-04-03T13:09:28;12.60;45.50
15997;DHT22;8103;51.340;12.326;2023-04-03T13:14:30;13.50;41.00
15997;DHT22;8103;51.340;12.326;2023-04-03T13:17:00;13.80;40.40
15997;DHT22;8103;51.340;12.326;2023-04-03T13:19:44;13.70;41.20
15997;DHT22;8103;51.340;12.326;2023-04-03T13:22:39;13.30;42.50
15997;DHT22;8103;51.340;12.326;2023-04-03T13:25:14;12.60;41.80
15997;DHT22;8103;51.340;12.326;2023-04-03T13:27:44;12.10;42.20
15997;DHT22;8103;51.340;12.326;2023-04-03T13:30:30;11.60;43.70
15997;DHT22;8103;51.340;12.326;2023-04-03T13:33:01;11.20;44.10
15997;DHT22;8103;51.340;12.326;2023-04-03T13:35:39;10.90;44.80
15997;DHT22;8103;51.340;12.326;2023-04-03T13:38:22;10.90;46.00
15997;DHT22;8103;51.340;12.326;2023-04-03T13:40:57;11.40;47.20
15997;DHT22;8103;51.340;12.326;2023-04-03T13:43:29;13.50;50.10
15997;DHT22;8103;51.340;12.326;2023-04-03T13:48:54;17.40;41.70
15997;DHT22;8103;51.340;12.326;2023-04-03T13:51:27;17.30;38.90
15997;DHT22;8103;51.340;12.326;2023-04-03T13:54:01;16.50;39.90
15997;DHT22;8103;51.340;12.326;2023-04-03T13:56:59;15.60;37.80
15997;DHT22;8103;51.340;12.326;2023-04-03T13:59:33;14.90;39.70
15997;DHT22;8103;51.340;12.326;2023-04-03T14:06:01;14.90;39.10
15997;DHT22;8103;51.340;12.326;2023-04-03T14:08:31;14.30;42.80
15997;DHT22;8103;51.340;12.326;2023-04-03T14:11:23;13.60;41.80
15997;DHT22;8103;51.340;12.326;2023-04-03T14:13:53;12.70;43.00
15997;DHT22;8103;51.340;12.326;2023-04-03T14:16:27;11.90;43.50
15997;DHT22;8103;51.340;12.326;2023-04-03T14:18:57;11.20;45.00
15997;DHT22;8103;51.340;12.326;2023-04-03T14:21:24;10.80;46.40
15997;DHT22;8103;51.340;12.326;2023-04-03T14:23:51;10.30;46.80
15997;DHT22;8103;51.340;12.326;2023-04-03T14:26:23;10.10;48.20
15997;DHT22;8103;51.340;12.326;2023-04-03T14:28:55;9.80;47.20
15997;DHT22;8103;51.340;12.326;2023-04-03T14:31:23;9.60;46.40
15997;DHT22;8103;51.340;12.326;2023-04-03T14:33:50;9.40;46.40
15997;DHT22;8103;51.340;12.326;2023-04-03T14:36:23;9.30;46.70
15997;DHT22;8103;51.340;12.326;2023-04-03T14:38:54;9.20;46.70
15997;DHT22;8103;51.340;12.326;2023-04-03T14:45:22;8.80;47.10
15997;DHT22;8103;51.340;12.326;2023-04-03T14:47:52;8.50;47.80
15997;DHT22;8103;51.340;12.326;2023-04-03T14:50:26;8.40;48.20
15997;DHT22;8103;51.340;12.326;2023-04-03T14:52:58;8.30;48.20
15997;DHT22;8103;51.340;12.326;2023-04-03T14:55:25;8.20;48.30
15997;DHT22;8103;51.340;12.326;2023-04-03T15:01:58;8.20;48.60
15997;DHT22;8103;51.340;12.326;2023-04-03T15:04:28;8.10;48.40
15997;DHT22;8103;51.340;12.326;2023-04-03T15:07:01;8.00;48.60
15997;DHT22;8103;51.340;12.326;2023-04-03T15:10:02;7.80;48.70
15997;DHT22;8103;51.340;12.326;2023-04-03T15:12:43;7.80;48.50
15997;DHT22;8103;51.340;12.326;2023-04-03T15:15:10;7.60;48.60
15997;DHT22;8103;51.340;12.326;2023-04-03T15:17:38;7.60;48.80
15997;DHT22;8103;51.340;12.326;2023-04-03T15:20:16;7.60;48.80
15997;DHT22;8103;51.340;12.326;2023-04-03T15:22:48;7.60;49.00
15997;DHT22;8103;51.340;12.326;2023-04-03T15:25:15;7.50;49.10
15997;DHT22;8103;51.340;12.326;2023-04-03T15:27:43;7.50;49.10
15997;DHT22;8103;51.340;12.326;2023-04-03T15:30:16;7.50;49.30
15997;DHT22;8103;51.340;12.326;2023-04-03T15:36:50;7.30;49.50
15997;DHT22;8103;51.340;12.326;2023-04-03T15:39:21;7.20;49.90
15997;DHT22;8103;51.340;12.326;2023-04-03T15:41:49;7.10;50.30
15997;DHT22;8103;51.340;12.326;2023-04-03T15:44:16;7.00;50.60
15997;DHT22;8103;51.340;12.326;2023-04-03T15:46:47;6.90;50.90
15997;DHT22;8103;51.340;12.326;2023-04-03T15:49:20;6.80;51.40
15997;DHT22;8103;51.340;12.326;2023-04-03T15:51:48;6.80;51.40
15997;DHT22;8103;51.340;12.326;2023-04-03T15:54:15;6.80;51.90
15997;DHT22;8103;51.340;12.326;2023-04-03T15:56:43;6.70;52.10
15997;DHT22;8103;51.340;12.326;2023-04-03T15:59:10;6.70;52.20
15997;DHT22;8103;51.340;12.326;2023-04-03T16:01:38;6.70;52.30
15997;DHT22;8103;51.340;12.326;2023-04-03T16:04:07;6.70;52.30
15997;DHT22;8103;51.340;12.326;2023-04-03T16:06:36;6.70;52.40
15997;DHT22;8103;51.340;12.326;2023-04-03T16:09:04;6.70;52.10
15997;DHT22;8103;51.340;12.326;2023-04-03T16:11:31;6.70;52.20
15997;DHT22;8103;51.340;12.326;2023-04-03T16:13:58;6.60;52.40
15997;DHT22;8103;51.340;12.326;2023-04-03T16:16:25;6.60;52.70
15997;DHT22;8103;51.340;12.326;2023-04-03T16:18:54;6.60;52.60
15997;DHT22;8103;51.340;12.326;2023-04-03T16:21:22;6.40;52.50
15997;DHT22;8103;51.340;12.326;2023-04-03T16:23:50;6.50;52.80
15997;DHT22;8103;51.340;12.326;2023-04-03T16:26:17;6.40;52.40
15997;DHT22;8103;51.340;12.326;2023-04-03T16:28:44;6.40;52.90
15997;DHT22;8103;51.340;12.326;2023-04-03T16:31:11;6.30;53.20
15997;DHT22;8103;51.340;12.326;2023-04-03T16:33:38;6.20;53.30
15997;DHT22;8103;51.340;12.326;2023-04-03T16:36:06;6.20;53.80
15997;DHT22;8103;51.340;12.326;2023-04-03T16:38:33;6.20;54.00
15997;DHT22;8103;51.340;12.326;2023-04-03T16:41:00;6.20;54.30
15997;DHT22;8103;51.340;12.326;2023-04-03T16:43:31;6.20;54.30
15997;DHT22;8103;51.340;12.326;2023-04-03T16:45:59;6.20;54.40
15997;DHT22;8103;51.340;12.326;2023-04-03T16:48:29;6.10;54.10
15997;DHT22;8103;51.340;12.326;2023-04-03T16:50:56;6.00;54.10
15997;DHT22;8103;51.340;12.326;2023-04-03T16:53:24;6.00;54.40
15997;DHT22;8103;51.340;12.326;2023-04-03T16:55:52;6.00;54.80
15997;DHT22;8103;51.340;12.326;2023-04-03T16:58:19;5.90;55.10
15997;DHT22;8103;51.340;12.326;2023-04-03T17:00:47;5.90;56.50
15997;DHT22;8103;51.340;12.326;2023-04-03T17:03:14;5.90;55.80
15997;DHT22;8103;51.340;12.326;2023-04-03T17:05:41;5.80;56.30
15997;DHT22;8103;51.340;12.326;2023-04-03T17:08:10;5.70;56.20
15997;DHT22;8103;51.340;12.326;2023-04-03T17:10:37;5.70;56.50
15997;DHT22;8103;51.340;12.326;2023-04-03T17:13:03;5.60;56.80
15997;DHT22;8103;51.340;12.326;2023-04-03T17:15:34;5.60;57.20
15997;DHT22;8103;51.340;12.326;2023-04-03T17:18:02;5.50;57.40
15997;DHT22;8103;51.340;12.326;2023-04-03T17:20:29;5.50;57.40
15997;DHT22;8103;51.340;12.326;2023-04-03T17:22:56;5.50;57.70
15997;DHT22;8103;51.340;12.326;2023-04-03T17:25:23;5.40;58.00
15997;DHT22;8103;51.340;12.326;2023-04-03T17:27:50;5.40;58.20
15997;DHT22;8103;51.340;12.326;2023-04-03T17:30:17;5.50;58.50
15997;DHT22;8103;51.340;12.326;2023-04-03T17:32:44;5.40;58.50
15997;DHT22;8103;51.340;12.326;2023-04-03T17:35:11;5.40;58.50
15997;DHT22;8103;51.340;12.326;2023-04-03T17:37:37;5.40;58.50
15997;DHT22;8103;51.340;12.326;2023-04-03T17:40:05;5.40;58.60
15997;DHT22;8103;51.340;12.326;2023-04-03T17:42:33;5.30;58.70
15997;DHT22;8103;51.340;12.326;2023-04-03T17:44:59;5.30;58.90
15997;DHT22;8103;51.340;12.326;2023-04-03T17:47:26;5.30;59.10
15997;DHT22;8103;51.340;12.326;2023-04-03T17:49:53;5.30;59.30
15997;DHT22;8103;51.340;12.326;2023-04-03T17:52:20;5.30;59.40
15997;DHT22;8103;51.340;12.326;2023-04-03T17:54:50;5.30;59.50
15997;DHT22;8103;51.340;12.326;2023-04-03T17:57:17;5.30;59.60
15997;DHT22;8103;51.340;12.326;2023-04-03T17:59:45;5.20;59.60
15997;DHT22;8103;51.340;12.326;2023-04-03T18:02:12;5.20;59.70
15997;DHT22;8103;51.340;12.326;2023-04-03T18:04:39;5.20;60.00
15997;DHT22;8103;51.340;12.326;2023-04-03T18:07:06;5.20;60.10
15997;DHT22;8103;51.340;12.326;2023-04-03T18:09:36;5.20;60.20
15997;DHT22;8103;51.340;12.326;2023-04-03T18:12:06;5.20;60.40
15997;DHT22;8103;51.340;12.326;2023-04-03T18:14:36;5.20;60.70
15997;DHT22;8103;51.340;12.326;2023-04-03T18:17:04;5.20;61.00
15997;DHT22;8103;51.340;12.326;2023-04-03T18:19:32;5.20;61.20